Jan Grosicki

Scout - Lechia
3 Apr 2027
Samstag
Verarbeitung

Persönlichkeit

Anpassungsfähigkeit (2) Ehrgeiz (10) Kontroverse (9) Loyalität (11) Druck (1) Professionalität (4) Fairness (8) Temperament (9)

Profil

Trainerstil Demokratisch
Lizenz Kontinentale B
Entschlossenheit 5
Menschenführung 5
Motivation 6
Disziplin 10
Arbeitszufriedenheit
99%
Ermüdung
0%
Rolle Scout
Gehalt 25.5K p/W
Vertrag 14.03.2029

Leistung

Verhalten Gut
Trainingseffektivität
42%
Spielerentwicklung
55%
Verletzungsprävention
40%
Taktische Umsetzung
55%

Letzte Ereignisse

Nahm an einer Scouting-Besprechung teil 14T her
Spieler begutachtet 14T her
Spieler begutachtet 14T her
Spieler begutachtet 14T her
Spieler begutachtet 21T her
Nahm an einer Scouting-Besprechung teil 21T her
Spieler begutachtet 21T her
Spieler begutachtet 21T her

Aktuell beobachtet

107
Spieler Verein Status Fähigkeit Vertrauen Beobachtet Zuletzt beobachtet Letzte Stimme
Niklas Vesterlund Utrecht Aktiv 119 / 115 40% 2 20.03.2027 -
Vinicius Tobias Shakhtar Aktiv 130 / 143 40% 1 20.03.2027 -
Maas Willemsen Heerenveen Aktiv 123 / 125 40% 1 20.03.2027 -
Mohamed Ali Ben Romdhane Al Ahly Aktiv 118 / 148 40% 3 19.03.2027 -
Simone Davi Südtirol Aktiv 108 / 104 40% 2 19.03.2027 -
Dominik Piła Cracovia Aktiv 120 / 123 40% 1 19.03.2027 -
Darijo Grujčić Wisla Krakow Aktiv 102 / 117 40% 2 18.03.2027 -
Marvin Kaleta Rotherham United Aktiv 107 / 121 40% 1 18.03.2027 -
Kamogelo Sebelebele Orlando Pirates Aktiv 116 / 130 40% 3 14.03.2027 -
Bernardo Vital Jagiellonia Aktiv 122 / 117 40% 3 14.03.2027 -
Andrea Ciofi Cesena Aktiv 127 / 124 40% 1 14.03.2027 -
Brooklyn Poggenpoel Maritzburg United Aktiv 97 / 90 40% 2 13.03.2027 -
Josh Neufville Bradford City Aktiv 102 / 108 40% 1 13.03.2027 -
Ítalo Ural Aktiv 106 / 112 40% 1 13.03.2027 -
Kyle John Port Vale Aktiv 103 / 96 40% 1 08.03.2027 -
Jenson Metcalfe Bradford City Aktiv 103 / 108 40% 1 08.03.2027 -
Tomás Ribeiro Cultural Leonesa Aktiv 128 / 126 40% 1 08.03.2027 -
Diego Murillo Málaga Aktiv 108 / 124 40% 2 07.03.2027 -
Rushwin Dortley Kaizer Chiefs Aktiv 125 / 106 40% 1 07.03.2027 -
Baldovino Cimino Cosenza Aktiv 112 / 100 40% 1 07.03.2027 -
Aaron Morley Wycombe Wanderers Aktiv 114 / 122 40% 3 01.03.2027 -
Miloš Brnović Arsenal Tula Aktiv 106 / 112 40% 1 01.03.2027 -
Luca Connell Barnsley Aktiv 111 / 113 40% 2 28.02.2027 -
Marcel Pięczek Korona Aktiv 113 / 97 40% 1 28.02.2027 -
Juande Rivas Piast Aktiv 109 / 106 40% 2 26.02.2027 -
António Eirô Lokomotiv Sofia Aktiv 107 / 106 40% 2 21.02.2027 -
Kacper Urbański Gornik Zabrze Aktiv 118 / 123 40% 2 20.02.2027 -
Oleksandr Drambaiev LNZ Aktiv 110 / 111 40% 1 20.02.2027 -
Charlie Webster Burton Albion Aktiv 109 / 109 40% 2 19.02.2027 -
Patrik Hellebrand Korona Aktiv 120 / 122 40% 3 19.02.2027 -
Edgardo Fariña Nizhniy Novgorod Aktiv 124 / 128 40% 1 18.02.2027 -
Lewis Freestone Stevenage Aktiv 97 / 116 40% 1 16.02.2027 -
Pastor CSKA Sofia Aktiv 121 / 109 40% 2 15.02.2027 -
Aleks Ławniczak Zaglebie Aktiv 100 / 98 40% 1 15.02.2027 -
Oleksandr Yatsyk Metalist Aktiv 109 / 108 40% 1 13.02.2027 -
Luan Patrick Estrela da Amadora Aktiv 114 / 133 40% 1 13.02.2027 -
Lindon Emërllahu Polissia Aktiv 114 / 122 40% 3 11.02.2027 -
Vitalii Kholod Karpaty Aktiv 104 / 102 40% 1 11.02.2027 -
Sinoxolo Kwayiba Chippa United Aktiv 112 / 125 40% 3 08.02.2027 -
Jan Jurčec Kryvbas Aktiv 116 / 113 40% 1 04.02.2027 -
Jhon Palacios Orenburg Aktiv 108 / 106 40% 1 31.01.2027 -
Jack Currie Oxford United Aktiv 123 / 129 40% 4 30.01.2027 -
Jay McGrath Doncaster Rovers Aktiv 108 / 98 40% 1 30.01.2027 -
Kane Wilson Milton Keynes Dons Aktiv 119 / 109 40% 2 28.01.2027 -
Ugochukwu Iwu Rubin Aktiv 128 / 108 40% 1 28.01.2027 -
Nono Korona Abgelehnt 110 / 97 62% 1 25.01.2027 Ablehnen
Gift Zwane Platinum Stars Aktiv 133 / 99 40% 2 23.01.2027 -
Rafael Profini Metalist Aktiv 113 / 131 40% 1 22.01.2027 -
Luther Phiri SuperSport United Aktiv 105 / 113 40% 1 18.01.2027 -
Tomasz Makowski Zaglebie Aktiv 111 / 104 40% 1 12.01.2027 -
Teboho Tau Ajax Cape Town Aktiv 99 / 101 40% 3 29.12.2026 -
Anders Klynge Jagiellonia Aktiv 123 / 115 40% 2 28.12.2026 -
Akinkunmi Amoo Ismaily Aktiv 136 / 124 40% 5 24.12.2026 -
Mauro Rodrigues Botev Plovdiv Aktiv 106 / 108 40% 2 22.12.2026 -
Rúben Vinagre Legia Aktiv 109 / 107 40% 1 22.12.2026 -
Phoenix Patterson Stevenage Aktiv 106 / 96 40% 1 19.12.2026 -
Rajmund Molnár Pogon Aktiv 120 / 105 40% 1 19.12.2026 -
Wiktor Długosz Korona Aktiv 116 / 123 40% 2 18.12.2026 -
Vitalii Dakhnovskyi Bukovyna Aktiv 116 / 111 40% 2 18.12.2026 -
Tony Springett Cheltenham Town Aktiv 107 / 96 40% 1 11.12.2026 -
Diego Valencia Gornik Leczna Aktiv 109 / 123 40% 2 10.12.2026 -
Ibrahim Tarek Masr El Makasa Aktiv 127 / 115 40% 2 09.12.2026 -
Carlos Gutiérrez Montana Aktiv 97 / 108 40% 1 08.12.2026 -
Ali Soliman Masr El Makasa Aktiv 140 / 129 40% 1 08.12.2026 -
Dijon Kameri Cracovia Abgelehnt 122 / 120 40% 3 07.12.2026 Ablehnen
Rodrigo Conceição Jagiellonia Abgelehnt 131 / 127 40% 2 07.12.2026 Mehr Infos nötig
Simon Ramabu Polokwane City Aktiv 109 / 116 40% 1 06.12.2026 -
Sergio Lozano Jagiellonia Aktiv 123 / 121 40% 1 30.11.2026 -
Robert Petkovic Zadar Aktiv 121 / 132 40% 1 30.11.2026 -
Juan Pablo Gallego Fehervar Aktiv 103 / 114 40% 1 25.11.2026 -
Mihael Mlinarić Zaglebie Aktiv 102 / 115 40% 1 25.11.2026 -
Lebogang Erasmus Platinum Stars Aktiv 97 / 100 40% 1 22.11.2026 -
Seedy Jatta Sturm Graz Aktiv 114 / 111 40% 1 22.11.2026 -
Mduduzi Shabalala Kaizer Chiefs Aktiv 115 / 99 40% 2 20.11.2026 -
Juan Bezerra Zamalek Aktiv 125 / 138 40% 1 20.11.2026 -
Daniel Kyerewaa Reading Aktiv 118 / 122 40% 1 19.11.2026 -
Kyreece Lisbie Colchester United Aktiv 103 / 115 40% 2 16.11.2026 -
Siyanda Ndlovu Hearts of Oak Aktiv 104 / 102 40% 1 10.11.2026 -
Filip Szymczak Zaglebie Aktiv 118 / 108 40% 1 06.11.2026 -
Peter Federico Gornik Zabrze Aktiv 118 / 122 40% 1 04.11.2026 -
Agustín Ramírez Inter Aktiv 96 / 93 40% 1 03.11.2026 -
Conrad Wallem Valerenga Aktiv 117 / 132 40% 2 02.11.2026 -
Thalente Mbatha Orlando Pirates Aktiv 108 / 121 40% 1 02.11.2026 -
Daniel Bassi Lillestrom Aktiv 125 / 124 40% 1 29.10.2026 -
Mfundo Vilakazi Kaizer Chiefs Aktiv 115 / 118 40% 2 26.10.2026 -
Piotr Samiec-Talar Slask Aktiv 99 / 112 40% 1 25.10.2026 -
Alin Fică CFR Cluj Aktiv 117 / 107 40% 1 19.10.2026 -
Leandro Sanca Piast Aktiv 117 / 97 40% 1 17.10.2026 -
Aljoša Matko Ujpest Aktiv 120 / 121 40% 1 10.10.2026 -
Ondřej Lingr Korona Aktiv 116 / 123 40% 1 23.09.2026 -
Juan Pablo Barinaga Patronato Aktiv 109 / 98 40% 1 22.09.2026 -
Darren Yapi Colorado Rapids Aktiv 109 / 100 40% 1 22.09.2026 -
Alberto Soro Dinamo Bucharest Aktiv 124 / 109 40% 1 20.09.2026 -
Sayfallah Ltaief Cracovia Aktiv 119 / 119 40% 1 19.09.2026 -
Hamzat Ojediran Colorado Rapids Aktiv 129 / 114 40% 1 19.09.2026 -
Ibrahim Aliyu Houston Dynamo Aktiv 119 / 101 40% 1 16.09.2026 -
Ramiro Ruiz Rodríguez Atlético Tucumán Aktiv 133 / 124 40% 1 15.09.2026 -
Dominik Marczuk Real Salt Lake Aktiv 120 / 119 40% 1 14.09.2026 -
João Peglow DC United Aktiv 105 / 126 40% 1 14.09.2026 -
Taisei Miyashiro Seattle Sounders Aktiv 112 / 106 40% 1 10.09.2026 -
Onni Valakari San Diego Football Club Aktiv 103 / 113 40% 1 10.09.2026 -
Noah Allen Inter Miami CF Aktiv 109 / 121 40% 1 09.09.2026 -
Marcin Biernat Podbeskidzie Abgelehnt 105 / 85 62% 1 17.08.2026 Ablehnen
Angelo Campos Juan Aurich Aktiv 118 / 114 40% 1 03.08.2026 -
Yhonatann Yustiz Metropolitanos Aktiv 111 / 122 40% 1 03.08.2026 -
Jean America de Cali Aktiv 125 / 105 40% 1 02.08.2026 -
Ander Cantero Burgos Aktiv 127 / 132 40% 1 02.08.2026 -